»·PEaware :: DCAAA KSLC-KRNO

DCAAA :: KSLC-KRNO

FLIGHT INFORMATION

Flight Status: Arrived
Operator: Unknown
More flights by this operator :: More flights under this callsign
Pilot: Klaus A. (15485)
Aircraft: BOMBARDIER BD-100 CHALLENGER 300
(CL30)
More flights by this aircraft type
Origin: KSLC Salt Lake City Intl
United States
Destination: KRNO Reno/Tahoe Intl
United States
More flights between these airports :: More routes between these airports
Route: PECOP5 BAM MYBAD MYBAD2
File this flight plan on PilotEdge
Remarks: / L Newbie Custom Weather
Altitude:
(Current/Filed)
38,000ft
Speed:
(Current/Filed)
160kts
Departed: 29-Apr-18 07:34 PM
Arrived: 29-Apr-18 08:49 PM
Distance/Time
Traveled:
365nm/1:15
Distance/Time
To Go:
Arrived

Flight Plot

Page will automatically refresh every two minutes.

Flight plan parsing failed; only flown route is shown


Map Options




Map Legend


Flown Route
Filed Route
Departure Airport
Arrival Airport
Navaid (VOR, NDB)
Fix

Horizontal Profiles

Position Reports

Time Latitude Longitude Heading Altitude Ground
Speed
29-Apr-18 18:59 40.775647 -111.958738 87 4234ft 0kts
29-Apr-18 19:00 40.775647 -111.958738 87 4234ft 0kts
29-Apr-18 19:01 40.775647 -111.958738 87 4234ft 0kts
29-Apr-18 19:02 40.775647 -111.958738 87 4234ft 0kts
29-Apr-18 19:03 40.775647 -111.958738 87 4234ft 0kts
29-Apr-18 19:04 40.775647 -111.958738 87 4234ft 0kts
29-Apr-18 19:05 40.775647 -111.958738 87 4234ft 0kts
29-Apr-18 19:06 40.775647 -111.958738 87 4234ft 0kts
29-Apr-18 19:07 40.775647 -111.958738 87 4234ft 0kts
29-Apr-18 19:08 40.775647 -111.958738 87 4234ft 0kts
29-Apr-18 19:09 40.775647 -111.958738 87 4234ft 0kts
29-Apr-18 19:10 40.775647 -111.958738 87 4234ft 0kts
29-Apr-18 19:11 40.775647 -111.958738 87 4234ft 0kts
29-Apr-18 19:12 40.775647 -111.958738 87 4234ft 0kts
29-Apr-18 19:13 40.775647 -111.958738 87 4234ft 0kts
29-Apr-18 19:14 40.775647 -111.958738 87 4234ft 0kts
29-Apr-18 19:15 40.775647 -111.958738 87 4234ft 0kts
29-Apr-18 19:16 40.775647 -111.958738 87 4234ft 0kts
29-Apr-18 19:17 40.775647 -111.958738 87 4234ft 0kts
29-Apr-18 19:18 40.775647 -111.958738 87 4234ft 0kts
29-Apr-18 19:19 40.775647 -111.958738 87 4234ft 0kts
29-Apr-18 19:20 40.775647 -111.958738 87 4234ft 0kts
29-Apr-18 19:21 40.775647 -111.958738 87 4234ft 0kts
29-Apr-18 19:22 40.775647 -111.958738 87 4234ft 0kts
29-Apr-18 19:23 40.775647 -111.958738 87 4234ft 0kts
29-Apr-18 19:24 40.775647 -111.958738 87 4234ft 0kts
29-Apr-18 19:25 40.775626 -111.958593 118 4234ft 3kts
29-Apr-18 19:26 40.775391 -111.960051 269 4234ft 11kts
29-Apr-18 19:27 40.773169 -111.960606 184 4234ft 11kts
29-Apr-18 19:28 40.772850 -111.960791 225 4234ft 0kts
29-Apr-18 19:29 40.772850 -111.960791 225 4234ft 0kts
29-Apr-18 19:30 40.772850 -111.960791 225 4234ft 0kts
29-Apr-18 19:31 40.772719 -111.961665 275 4234ft 9kts
29-Apr-18 19:32 40.774043 -111.962086 1 4233ft 26kts
29-Apr-18 19:33 40.810225 -111.966016 315 5761ft 195kts
29-Apr-18 19:34 40.805517 -112.041775 288 8683ft 244kts
29-Apr-18 19:35 40.844981 -112.119992 302 10030ft 289kts
29-Apr-18 19:36 40.881638 -112.210659 265 12015ft 259kts
29-Apr-18 19:37 40.878517 -112.303212 262 14453ft 255kts
29-Apr-18 19:38 40.872219 -112.403504 258 16965ft 305kts
29-Apr-18 19:39 40.864805 -112.517612 258 19411ft 316kts
29-Apr-18 19:40 40.856623 -112.632238 258 21833ft 313kts
29-Apr-18 19:41 40.847759 -112.743364 258 23475ft 335kts
29-Apr-18 19:42 40.841260 -112.871257 263 25516ft 366kts
29-Apr-18 19:43 40.841205 -113.009261 264 27547ft 384kts
29-Apr-18 19:44 40.841417 -113.151891 264 29568ft 393kts
29-Apr-18 19:45 40.841602 -113.296744 263 31363ft 400kts
29-Apr-18 19:46 40.841538 -113.445305 264 32670ft 413kts
29-Apr-18 19:47 40.841331 -113.598150 265 33955ft 422kts
29-Apr-18 19:48 40.840926 -113.751198 264 35258ft 426kts
29-Apr-18 19:49 40.840270 -113.907216 265 36565ft 427kts
29-Apr-18 19:50 40.839386 -114.064707 267 37567ft 434kts
29-Apr-18 19:51 40.838802 -114.225875 267 37965ft 449kts
29-Apr-18 19:52 40.837450 -114.387821 267 37949ft 431kts
29-Apr-18 19:53 40.835827 -114.544871 267 37944ft 433kts
29-Apr-18 19:54 40.833936 -114.702844 266 37962ft 436kts
29-Apr-18 19:55 40.820508 -114.860617 260 37959ft 437kts
29-Apr-18 19:56 40.802904 -115.018466 260 37998ft 437kts
29-Apr-18 19:57 40.784835 -115.176237 260 37999ft 435kts
29-Apr-18 19:58 40.766499 -115.333734 260 38003ft 435kts
29-Apr-18 19:59 40.748123 -115.489877 260 38003ft 434kts
29-Apr-18 20:00 40.729468 -115.646391 260 38005ft 432kts
29-Apr-18 20:01 40.710844 -115.800557 261 38010ft 432kts
29-Apr-18 20:02 40.691861 -115.956364 261 38013ft 432kts
29-Apr-18 20:03 40.672612 -116.112353 261 38009ft 432kts
29-Apr-18 20:04 40.653243 -116.267451 261 38007ft 431kts
29-Apr-18 20:05 40.633715 -116.422044 261 38032ft 430kts
29-Apr-18 20:06 40.613926 -116.577140 261 38030ft 430kts
29-Apr-18 20:07 40.594191 -116.730051 261 38038ft 429kts
29-Apr-18 20:08 40.574067 -116.884194 261 38037ft 430kts
29-Apr-18 20:09 40.555182 -117.039334 262 38036ft 430kts
29-Apr-18 20:10 40.536544 -117.194384 262 38035ft 430kts
29-Apr-18 20:11 40.517725 -117.349046 263 38034ft 430kts
29-Apr-18 20:12 40.498725 -117.503770 263 38033ft 429kts
29-Apr-18 20:13 40.479883 -117.655384 262 38033ft 429kts
29-Apr-18 20:14 40.460525 -117.809143 263 38037ft 430kts
29-Apr-18 20:15 40.440837 -117.964130 263 36913ft 435kts
29-Apr-18 20:16 40.421215 -118.116687 264 34625ft 422kts
29-Apr-18 20:17 40.401217 -118.270672 265 32346ft 433kts
29-Apr-18 20:18 40.361686 -118.418718 250 29965ft 437kts
29-Apr-18 20:19 40.302905 -118.554680 246 27558ft 425kts
29-Apr-18 20:20 40.248223 -118.682369 248 25237ft 408kts
29-Apr-18 20:21 40.198600 -118.808549 250 22851ft 377kts
29-Apr-18 20:22 40.152139 -118.926915 248 20483ft 357kts
29-Apr-18 20:23 40.107876 -119.039082 245 18091ft 338kts
29-Apr-18 20:24 40.066067 -119.144317 245 15699ft 320kts
29-Apr-18 20:25 40.026039 -119.244850 245 13317ft 304kts
29-Apr-18 20:26 39.989351 -119.336704 246 13036ft 280kts
29-Apr-18 20:28 39.954235 -119.424418 246 13036ft 275kts
29-Apr-18 20:29 39.915390 -119.510062 242 13036ft 273kts
29-Apr-18 20:30 39.875713 -119.592127 232 11678ft 283kts
29-Apr-18 20:31 39.801349 -119.608652 183 11034ft 277kts
29-Apr-18 20:32 39.724144 -119.610033 183 11034ft 277kts
29-Apr-18 20:33 39.648638 -119.610577 183 11035ft 271kts
29-Apr-18 20:34 39.573268 -119.611085 183 11025ft 272kts
29-Apr-18 20:35 39.498450 -119.611595 183 10110ft 263kts
29-Apr-18 20:35 39.439625 -119.612200 183 9034ft 247kts
29-Apr-18 20:36 39.371249 -119.613268 183 9018ft 237kts
29-Apr-18 20:37 39.309496 -119.613934 183 9048ft 221kts
29-Apr-18 20:38 39.248456 -119.614402 183 9044ft 218kts
29-Apr-18 20:40 39.210731 -119.659193 273 9050ft 184kts
29-Apr-18 20:41 39.211426 -119.721580 273 9067ft 170kts
29-Apr-18 20:41 39.233144 -119.755988 332 9068ft 166kts
29-Apr-18 20:42 39.277849 -119.769825 356 9047ft 160kts
29-Apr-18 20:43 39.321260 -119.769818 356 8196ft 154kts
29-Apr-18 20:44 39.363784 -119.769710 357 7215ft 144kts
29-Apr-18 20:45 39.403233 -119.769604 358 6329ft 145kts
29-Apr-18 20:46 39.443484 -119.769483 0 5390ft 135kts
29-Apr-18 20:47 39.481238 -119.769276 2 4568ft 135kts
29-Apr-18 20:48 39.502383 -119.769282 0 4422ft 7kts
29-Apr-18 20:49 39.510138 -119.769208 1 4422ft 13kts
29-Apr-18 20:50 39.513733 -119.766518 89 4422ft 18kts
29-Apr-18 20:51 39.513011 -119.764389 91 4422ft 0kts
29-Apr-18 20:52 39.513011 -119.764389 91 4422ft 0kts
29-Apr-18 20:53 39.513011 -119.764389 91 4422ft 0kts
29-Apr-18 20:54 39.513011 -119.764389 91 4422ft 0kts
29-Apr-18 20:55 39.513011 -119.764389 91 4422ft 0kts
29-Apr-18 20:56 39.513011 -119.764389 91 4422ft 0kts

Navigation Log

Ident Type
Flight plan parsing failed, navigation log unavailable